sensor_id;sensor_type;location;lat;lon;timestamp;pressure;altitude;pressure_sealevel;temperature;humidity
4745;BME280;2386;42.138;24.746;2023-05-09T00:00:40;99960.50;;;14.22;100.00
4745;BME280;2386;42.138;24.746;2023-05-09T00:03:06;99963.97;;;14.17;100.00
4745;BME280;2386;42.138;24.746;2023-05-09T00:05:32;99964.47;;;14.14;100.00
4745;BME280;2386;42.138;24.746;2023-05-09T00:07:57;99961.84;;;14.19;100.00
4745;BME280;2386;42.138;24.746;2023-05-09T00:10:22;99962.50;;;14.26;100.00
4745;BME280;2386;42.138;24.746;2023-05-09T00:12:48;99961.75;;;14.14;100.00
4745;BME280;2386;42.138;24.746;2023-05-09T00:15:14;99965.81;;;14.28;100.00
4745;BME280;2386;42.138;24.746;2023-05-09T00:17:39;99969.72;;;14.32;100.00
4745;BME280;2386;42.138;24.746;2023-05-09T00:20:08;99969.28;;;14.24;100.00
4745;BME280;2386;42.138;24.746;2023-05-09T00:22:39;99971.13;;;14.35;100.00
4745;BME280;2386;42.138;24.746;2023-05-09T00:25:06;99967.91;;;14.38;100.00
4745;BME280;2386;42.138;24.746;2023-05-09T00:27:32;99954.22;;;14.21;100.00
4745;BME280;2386;42.138;24.746;2023-05-09T00:29:57;99963.66;;;14.30;100.00
4745;BME280;2386;42.138;24.746;2023-05-09T00:32:23;99963.00;;;14.23;100.00
4745;BME280;2386;42.138;24.746;2023-05-09T00:34:49;99966.31;;;14.25;100.00
4745;BME280;2386;42.138;24.746;2023-05-09T00:37:15;99971.53;;;14.27;100.00
4745;BME280;2386;42.138;24.746;2023-05-09T00:39:42;99972.75;;;14.19;100.00
4745;BME280;2386;42.138;24.746;2023-05-09T00:42:07;99978.13;;;14.31;100.00
4745;BME280;2386;42.138;24.746;2023-05-09T00:44:33;99979.94;;;14.25;100.00
4745;BME280;2386;42.138;24.746;2023-05-09T00:46:58;99979.72;;;14.27;100.00
4745;BME280;2386;42.138;24.746;2023-05-09T00:49:23;99986.00;;;14.27;100.00
4745;BME280;2386;42.138;24.746;2023-05-09T00:51:50;99980.44;;;14.22;100.00
4745;BME280;2386;42.138;24.746;2023-05-09T00:54:16;99982.94;;;14.24;100.00
4745;BME280;2386;42.138;24.746;2023-05-09T00:56:42;99987.16;;;14.31;100.00
4745;BME280;2386;42.138;24.746;2023-05-09T00:59:07;99973.75;;;14.30;100.00
4745;BME280;2386;42.138;24.746;2023-05-09T01:01:33;99985.16;;;14.27;100.00
4745;BME280;2386;42.138;24.746;2023-05-09T01:03:58;99988.03;;;14.20;100.00
4745;BME280;2386;42.138;24.746;2023-05-09T01:06:37;99994.25;;;14.15;100.00
4745;BME280;2386;42.138;24.746;2023-05-09T01:09:18;99985.81;;;14.17;100.00
4745;BME280;2386;42.138;24.746;2023-05-09T01:11:53;99999.34;;;14.12;100.00
4745;BME280;2386;42.138;24.746;2023-05-09T01:14:39;99993.66;;;14.13;100.00
4745;BME280;2386;42.138;24.746;2023-05-09T01:17:26;100000.53;;;14.16;100.00
4745;BME280;2386;42.138;24.746;2023-05-09T01:20:00;100000.53;;;14.16;100.00
4745;BME280;2386;42.138;24.746;2023-05-09T01:22:33;99996.38;;;14.13;100.00
4745;BME280;2386;42.138;24.746;2023-05-09T01:30:38;100008.13;;;14.14;100.00
4745;BME280;2386;42.138;24.746;2023-05-09T01:33:06;100003.19;;;14.11;100.00
4745;BME280;2386;42.138;24.746;2023-05-09T01:35:35;99997.97;;;14.09;100.00
4745;BME280;2386;42.138;24.746;2023-05-09T01:38:13;99998.53;;;14.11;100.00
4745;BME280;2386;42.138;24.746;2023-05-09T01:40:41;99994.22;;;13.99;100.00
4745;BME280;2386;42.138;24.746;2023-05-09T01:43:10;99996.94;;;13.99;100.00
4745;BME280;2386;42.138;24.746;2023-05-09T01:45:36;100005.97;;;13.99;100.00
4745;BME280;2386;42.138;24.746;2023-05-09T01:48:05;99998.50;;;13.95;100.00
4745;BME280;2386;42.138;24.746;2023-05-09T01:50:33;100009.41;;;13.95;100.00
4745;BME280;2386;42.138;24.746;2023-05-09T01:53:00;99995.59;;;13.85;100.00
4745;BME280;2386;42.138;24.746;2023-05-09T01:55:27;100002.66;;;13.97;100.00
4745;BME280;2386;42.138;24.746;2023-05-09T01:57:54;100006.31;;;14.03;100.00
4745;BME280;2386;42.138;24.746;2023-05-09T02:00:22;100004.16;;;14.05;100.00
4745;BME280;2386;42.138;24.746;2023-05-09T02:02:49;100005.47;;;14.02;100.00
4745;BME280;2386;42.138;24.746;2023-05-09T02:05:16;100011.66;;;13.98;100.00
4745;BME280;2386;42.138;24.746;2023-05-09T02:07:44;100017.81;;;14.05;100.00
4745;BME280;2386;42.138;24.746;2023-05-09T02:10:10;100011.84;;;14.08;100.00
4745;BME280;2386;42.138;24.746;2023-05-09T02:12:37;100011.41;;;13.99;100.00
4745;BME280;2386;42.138;24.746;2023-05-09T02:15:04;100016.63;;;14.01;100.00
4745;BME280;2386;42.138;24.746;2023-05-09T02:17:30;100015.56;;;14.02;100.00
4745;BME280;2386;42.138;24.746;2023-05-09T02:19:56;100013.06;;;14.00;100.00
4745;BME280;2386;42.138;24.746;2023-05-09T02:22:22;100024.63;;;13.91;100.00
4745;BME280;2386;42.138;24.746;2023-05-09T02:24:47;100015.94;;;13.94;100.00
4745;BME280;2386;42.138;24.746;2023-05-09T02:27:13;100022.38;;;13.88;100.00
4745;BME280;2386;42.138;24.746;2023-05-09T02:29:44;100015.84;;;13.89;100.00
4745;BME280;2386;42.138;24.746;2023-05-09T02:32:14;100018.09;;;13.92;100.00
4745;BME280;2386;42.138;24.746;2023-05-09T02:34:41;100017.69;;;14.00;100.00
4745;BME280;2386;42.138;24.746;2023-05-09T02:37:07;100030.28;;;14.01;100.00
4745;BME280;2386;42.138;24.746;2023-05-09T02:39:33;100030.41;;;13.94;100.00
4745;BME280;2386;42.138;24.746;2023-05-09T02:42:07;100028.41;;;13.90;100.00
4745;BME280;2386;42.138;24.746;2023-05-09T02:44:33;100026.38;;;13.97;100.00
4745;BME280;2386;42.138;24.746;2023-05-09T02:46:59;100037.75;;;13.94;100.00
4745;BME280;2386;42.138;24.746;2023-05-09T02:49:25;100029.09;;;13.97;100.00
4745;BME280;2386;42.138;24.746;2023-05-09T02:51:50;100033.00;;;14.01;100.00
4745;BME280;2386;42.138;24.746;2023-05-09T02:54:16;100037.72;;;14.05;100.00
4745;BME280;2386;42.138;24.746;2023-05-09T02:56:42;100034.22;;;13.93;100.00
4745;BME280;2386;42.138;24.746;2023-05-09T02:59:07;100031.25;;;13.95;100.00
4745;BME280;2386;42.138;24.746;2023-05-09T03:01:33;100033.28;;;13.88;100.00
4745;BME280;2386;42.138;24.746;2023-05-09T03:03:58;100032.41;;;13.99;100.00
4745;BME280;2386;42.138;24.746;2023-05-09T03:06:24;100023.06;;;13.95;100.00
4745;BME280;2386;42.138;24.746;2023-05-09T03:08:49;100035.13;;;13.99;100.00
4745;BME280;2386;42.138;24.746;2023-05-09T03:11:14;100038.44;;;14.01;100.00
4745;BME280;2386;42.138;24.746;2023-05-09T03:13:40;100041.88;;;14.08;100.00
4745;BME280;2386;42.138;24.746;2023-05-09T03:16:05;100047.91;;;14.10;100.00
4745;BME280;2386;42.138;24.746;2023-05-09T03:18:31;100054.44;;;14.09;100.00
4745;BME280;2386;42.138;24.746;2023-05-09T03:20:56;100061.53;;;14.10;100.00
4745;BME280;2386;42.138;24.746;2023-05-09T03:23:22;100060.72;;;14.09;100.00
4745;BME280;2386;42.138;24.746;2023-05-09T03:25:47;100062.03;;;14.07;100.00
4745;BME280;2386;42.138;24.746;2023-05-09T03:28:13;100065.66;;;14.12;100.00
4745;BME280;2386;42.138;24.746;2023-05-09T03:30:38;100061.13;;;14.18;100.00
4745;BME280;2386;42.138;24.746;2023-05-09T03:33:03;100068.47;;;14.18;100.00
4745;BME280;2386;42.138;24.746;2023-05-09T03:35:30;100071.63;;;14.09;100.00
4745;BME280;2386;42.138;24.746;2023-05-09T03:37:55;100080.44;;;14.00;100.00
4745;BME280;2386;42.138;24.746;2023-05-09T03:40:21;100073.22;;;13.94;100.00
4745;BME280;2386;42.138;24.746;2023-05-09T03:42:46;100073.47;;;13.92;100.00
4745;BME280;2386;42.138;24.746;2023-05-09T03:45:12;100079.63;;;13.88;100.00
4745;BME280;2386;42.138;24.746;2023-05-09T03:47:37;100075.50;;;13.85;100.00
4745;BME280;2386;42.138;24.746;2023-05-09T03:50:03;100079.16;;;13.91;100.00
4745;BME280;2386;42.138;24.746;2023-05-09T03:52:28;100085.81;;;13.83;100.00
4745;BME280;2386;42.138;24.746;2023-05-09T03:54:54;100084.03;;;13.89;100.00
4745;BME280;2386;42.138;24.746;2023-05-09T03:57:19;100078.09;;;13.80;100.00
4745;BME280;2386;42.138;24.746;2023-05-09T03:59:45;100087.91;;;13.93;100.00
4745;BME280;2386;42.138;24.746;2023-05-09T04:02:10;100087.00;;;13.87;100.00
4745;BME280;2386;42.138;24.746;2023-05-09T04:04:36;100088.41;;;13.90;100.00
4745;BME280;2386;42.138;24.746;2023-05-09T04:07:01;100079.50;;;13.94;100.00
4745;BME280;2386;42.138;24.746;2023-05-09T04:09:27;100081.50;;;13.99;100.00
4745;BME280;2386;42.138;24.746;2023-05-09T04:11:53;100079.38;;;14.01;100.00
4745;BME280;2386;42.138;24.746;2023-05-09T04:14:18;100084.81;;;14.01;100.00
4745;BME280;2386;42.138;24.746;2023-05-09T04:16:43;100087.31;;;14.02;100.00
4745;BME280;2386;42.138;24.746;2023-05-09T04:19:09;100089.31;;;14.07;100.00
4745;BME280;2386;42.138;24.746;2023-05-09T04:21:34;100091.44;;;14.05;100.00
4745;BME280;2386;42.138;24.746;2023-05-09T04:24:00;100093.22;;;14.11;100.00
4745;BME280;2386;42.138;24.746;2023-05-09T04:26:25;100090.56;;;14.16;100.00
4745;BME280;2386;42.138;24.746;2023-05-09T04:28:51;100095.94;;;14.11;100.00
4745;BME280;2386;42.138;24.746;2023-05-09T04:31:17;100095.41;;;14.14;100.00
4745;BME280;2386;42.138;24.746;2023-05-09T04:33:43;100090.31;;;14.18;100.00
4745;BME280;2386;42.138;24.746;2023-05-09T04:36:09;100087.34;;;14.19;100.00
4745;BME280;2386;42.138;24.746;2023-05-09T04:38:34;100098.34;;;14.24;100.00
4745;BME280;2386;42.138;24.746;2023-05-09T04:41:00;100090.38;;;14.06;100.00
4745;BME280;2386;42.138;24.746;2023-05-09T04:43:25;100098.75;;;14.16;100.00
4745;BME280;2386;42.138;24.746;2023-05-09T04:45:52;100097.88;;;14.27;100.00
4745;BME280;2386;42.138;24.746;2023-05-09T04:48:17;100094.31;;;14.27;100.00
4745;BME280;2386;42.138;24.746;2023-05-09T04:50:43;100089.19;;;14.30;100.00
4745;BME280;2386;42.138;24.746;2023-05-09T04:53:08;100098.47;;;14.29;100.00
4745;BME280;2386;42.138;24.746;2023-05-09T04:55:35;100111.50;;;14.27;100.00
4745;BME280;2386;42.138;24.746;2023-05-09T04:58:00;100099.78;;;14.27;100.00
4745;BME280;2386;42.138;24.746;2023-05-09T05:00:26;100100.13;;;14.30;100.00
4745;BME280;2386;42.138;24.746;2023-05-09T05:02:51;100104.75;;;14.30;100.00
4745;BME280;2386;42.138;24.746;2023-05-09T05:05:17;100108.34;;;14.19;100.00
4745;BME280;2386;42.138;24.746;2023-05-09T05:07:42;100110.34;;;14.23;100.00
4745;BME280;2386;42.138;24.746;2023-05-09T05:10:08;100116.03;;;14.22;100.00
4745;BME280;2386;42.138;24.746;2023-05-09T05:12:33;100115.56;;;14.25;100.00
4745;BME280;2386;42.138;24.746;2023-05-09T05:14:59;100120.88;;;14.31;100.00
4745;BME280;2386;42.138;24.746;2023-05-09T05:17:24;100116.38;;;14.25;100.00
4745;BME280;2386;42.138;24.746;2023-05-09T05:19:50;100112.69;;;14.31;100.00
4745;BME280;2386;42.138;24.746;2023-05-09T05:22:15;100114.00;;;14.29;100.00
4745;BME280;2386;42.138;24.746;2023-05-09T05:24:41;100119.56;;;14.34;100.00
4745;BME280;2386;42.138;24.746;2023-05-09T05:27:06;100113.84;;;14.35;100.00
4745;BME280;2386;42.138;24.746;2023-05-09T05:29:31;100124.78;;;14.35;100.00
4745;BME280;2386;42.138;24.746;2023-05-09T05:31:57;100123.59;;;14.31;100.00
4745;BME280;2386;42.138;24.746;2023-05-09T05:34:22;100115.66;;;14.30;100.00
4745;BME280;2386;42.138;24.746;2023-05-09T05:36:47;100130.22;;;14.35;100.00
4745;BME280;2386;42.138;24.746;2023-05-09T05:39:13;100124.19;;;14.33;100.00
4745;BME280;2386;42.138;24.746;2023-05-09T05:41:38;100134.03;;;14.34;100.00
4745;BME280;2386;42.138;24.746;2023-05-09T05:44:04;100130.63;;;14.27;100.00
4745;BME280;2386;42.138;24.746;2023-05-09T05:46:29;100129.19;;;14.25;100.00
4745;BME280;2386;42.138;24.746;2023-05-09T05:48:55;100124.78;;;14.35;100.00
4745;BME280;2386;42.138;24.746;2023-05-09T05:51:20;100135.09;;;14.45;100.00
4745;BME280;2386;42.138;24.746;2023-05-09T05:53:46;100125.06;;;14.22;100.00
4745;BME280;2386;42.138;24.746;2023-05-09T05:56:11;100135.34;;;14.32;100.00
4745;BME280;2386;42.138;24.746;2023-05-09T05:58:36;100132.75;;;14.25;100.00
4745;BME280;2386;42.138;24.746;2023-05-09T06:01:02;100132.84;;;14.30;100.00
4745;BME280;2386;42.138;24.746;2023-05-09T06:03:34;100130.38;;;14.29;100.00
4745;BME280;2386;42.138;24.746;2023-05-09T06:05:59;100127.88;;;14.27;100.00
4745;BME280;2386;42.138;24.746;2023-05-09T06:08:24;100122.78;;;14.31;100.00
4745;BME280;2386;42.138;24.746;2023-05-09T06:10:50;100135.44;;;14.37;100.00
4745;BME280;2386;42.138;24.746;2023-05-09T06:13:15;100123.88;;;14.18;100.00
4745;BME280;2386;42.138;24.746;2023-05-09T06:15:41;100136.75;;;14.06;100.00
4745;BME280;2386;42.138;24.746;2023-05-09T06:18:06;100132.75;;;13.97;100.00
4745;BME280;2386;42.138;24.746;2023-05-09T06:20:33;100137.97;;;13.87;100.00
4745;BME280;2386;42.138;24.746;2023-05-09T06:23:00;100130.84;;;13.86;100.00
4745;BME280;2386;42.138;24.746;2023-05-09T06:25:25;100139.16;;;13.91;100.00
4745;BME280;2386;42.138;24.746;2023-05-09T06:27:50;100135.22;;;13.98;100.00
4745;BME280;2386;42.138;24.746;2023-05-09T06:30:16;100133.31;;;13.99;100.00
4745;BME280;2386;42.138;24.746;2023-05-09T06:32:41;100128.22;;;14.02;100.00
4745;BME280;2386;42.138;24.746;2023-05-09T06:35:06;100132.47;;;14.10;100.00
4745;BME280;2386;42.138;24.746;2023-05-09T06:37:32;100130.13;;;14.02;100.00
4745;BME280;2386;42.138;24.746;2023-05-09T06:39:58;100131.78;;;14.03;100.00
4745;BME280;2386;42.138;24.746;2023-05-09T06:42:23;100136.44;;;14.19;100.00
4745;BME280;2386;42.138;24.746;2023-05-09T06:44:48;100137.28;;;14.20;100.00
4745;BME280;2386;42.138;24.746;2023-05-09T06:47:14;100130.50;;;14.22;100.00
4745;BME280;2386;42.138;24.746;2023-05-09T06:49:39;100128.97;;;14.26;100.00
4745;BME280;2386;42.138;24.746;2023-05-09T06:52:05;100131.59;;;14.21;100.00
4745;BME280;2386;42.138;24.746;2023-05-09T06:54:30;100143.47;;;14.15;100.00
4745;BME280;2386;42.138;24.746;2023-05-09T06:56:55;100137.66;;;14.11;100.00
4745;BME280;2386;42.138;24.746;2023-05-09T06:59:21;100147.94;;;14.21;100.00
4745;BME280;2386;42.138;24.746;2023-05-09T07:01:46;100145.91;;;14.28;100.00
4745;BME280;2386;42.138;24.746;2023-05-09T07:04:11;100147.72;;;14.23;100.00
4745;BME280;2386;42.138;24.746;2023-05-09T07:06:37;100147.09;;;14.32;100.00
4745;BME280;2386;42.138;24.746;2023-05-09T07:09:02;100144.47;;;14.37;100.00
4745;BME280;2386;42.138;24.746;2023-05-09T07:11:33;100145.78;;;14.35;100.00
4745;BME280;2386;42.138;24.746;2023-05-09T07:13:59;100139.84;;;14.38;100.00
4745;BME280;2386;42.138;24.746;2023-05-09T07:16:24;100151.91;;;14.54;100.00
4745;BME280;2386;42.138;24.746;2023-05-09T07:18:49;100163.81;;;14.36;100.00
4745;BME280;2386;42.138;24.746;2023-05-09T07:21:15;100161.91;;;14.36;100.00
4745;BME280;2386;42.138;24.746;2023-05-09T07:23:40;100160.16;;;14.30;100.00
4745;BME280;2386;42.138;24.746;2023-05-09T07:26:06;100158.38;;;14.24;100.00
4745;BME280;2386;42.138;24.746;2023-05-09T07:28:31;100156.69;;;14.35;100.00
4745;BME280;2386;42.138;24.746;2023-05-09T07:30:56;100156.59;;;14.41;100.00
4745;BME280;2386;42.138;24.746;2023-05-09T07:33:22;100153.38;;;14.44;100.00
4745;BME280;2386;42.138;24.746;2023-05-09T07:35:47;100150.16;;;14.48;100.00
4745;BME280;2386;42.138;24.746;2023-05-09T07:38:13;100144.81;;;14.41;100.00
4745;BME280;2386;42.138;24.746;2023-05-09T07:40:39;100145.38;;;14.55;100.00
4745;BME280;2386;42.138;24.746;2023-05-09T07:43:05;100153.91;;;14.58;100.00
4745;BME280;2386;42.138;24.746;2023-05-09T07:45:30;100150.13;;;14.59;100.00
4745;BME280;2386;42.138;24.746;2023-05-09T07:47:56;100151.34;;;14.52;100.00
4745;BME280;2386;42.138;24.746;2023-05-09T07:50:21;100162.44;;;14.62;100.00
4745;BME280;2386;42.138;24.746;2023-05-09T07:52:47;100161.47;;;14.68;100.00
4745;BME280;2386;42.138;24.746;2023-05-09T07:55:12;100161.66;;;14.78;100.00
4745;BME280;2386;42.138;24.746;2023-05-09T07:57:38;100162.66;;;14.72;100.00
4745;BME280;2386;42.138;24.746;2023-05-09T08:00:04;100161.41;;;14.79;100.00
4745;BME280;2386;42.138;24.746;2023-05-09T08:02:34;100174.06;;;14.86;100.00
4745;BME280;2386;42.138;24.746;2023-05-09T08:05:00;100166.22;;;14.89;100.00
4745;BME280;2386;42.138;24.746;2023-05-09T08:07:25;100165.31;;;14.84;100.00
4745;BME280;2386;42.138;24.746;2023-05-09T08:09:51;100163.47;;;14.89;100.00
4745;BME280;2386;42.138;24.746;2023-05-09T08:12:16;100164.31;;;14.90;100.00
4745;BME280;2386;42.138;24.746;2023-05-09T08:14:42;100157.53;;;14.92;100.00
4745;BME280;2386;42.138;24.746;2023-05-09T08:17:07;100154.88;;;14.97;100.00
4745;BME280;2386;42.138;24.746;2023-05-09T08:19:33;100160.09;;;14.82;100.00
4745;BME280;2386;42.138;24.746;2023-05-09T08:21:58;100153.38;;;14.90;100.00
4745;BME280;2386;42.138;24.746;2023-05-09T08:24:24;100166.16;;;15.01;100.00
4745;BME280;2386;42.138;24.746;2023-05-09T08:26:50;100172.34;;;14.96;100.00
4745;BME280;2386;42.138;24.746;2023-05-09T08:29:15;100159.44;;;14.92;100.00
4745;BME280;2386;42.138;24.746;2023-05-09T08:31:42;100156.38;;;14.88;100.00
4745;BME280;2386;42.138;24.746;2023-05-09T08:34:07;100162.84;;;14.99;100.00
4745;BME280;2386;42.138;24.746;2023-05-09T08:36:33;100149.44;;;14.97;100.00
4745;BME280;2386;42.138;24.746;2023-05-09T08:38:58;100148.00;;;14.95;100.00
4745;BME280;2386;42.138;24.746;2023-05-09T08:41:25;100144.34;;;14.89;100.00
4745;BME280;2386;42.138;24.746;2023-05-09T08:43:52;100159.69;;;15.07;100.00
4745;BME280;2386;42.138;24.746;2023-05-09T08:46:23;100164.00;;;15.03;100.00
4745;BME280;2386;42.138;24.746;2023-05-09T08:48:52;100157.63;;;14.97;100.00
4745;BME280;2386;42.138;24.746;2023-05-09T08:51:18;100162.09;;;15.03;100.00
4745;BME280;2386;42.138;24.746;2023-05-09T08:53:43;100162.69;;;15.05;100.00
4745;BME280;2386;42.138;24.746;2023-05-09T08:56:10;100165.50;;;15.10;100.00
4745;BME280;2386;42.138;24.746;2023-05-09T08:58:35;100162.19;;;15.08;100.00
4745;BME280;2386;42.138;24.746;2023-05-09T09:01:01;100152.59;;;15.06;100.00
4745;BME280;2386;42.138;24.746;2023-05-09T09:03:31;100166.91;;;15.13;100.00
4745;BME280;2386;42.138;24.746;2023-05-09T09:05:56;100159.53;;;15.13;100.00
4745;BME280;2386;42.138;24.746;2023-05-09T09:08:22;100161.34;;;15.08;100.00
4745;BME280;2386;42.138;24.746;2023-05-09T09:10:49;100169.31;;;15.09;100.00
4745;BME280;2386;42.138;24.746;2023-05-09T09:13:16;100161.59;;;15.06;100.00
4745;BME280;2386;42.138;24.746;2023-05-09T09:15:44;100157.72;;;15.02;100.00
4745;BME280;2386;42.138;24.746;2023-05-09T09:18:30;100161.03;;;15.04;100.00
4745;BME280;2386;42.138;24.746;2023-05-09T09:21:09;100152.25;;;15.02;100.00
4745;BME280;2386;42.138;24.746;2023-05-09T09:28:42;100148.09;;;15.00;100.00
4745;BME280;2386;42.138;24.746;2023-05-09T11:17:44;100145.34;;;15.84;100.00
4745;BME280;2386;42.138;24.746;2023-05-09T11:20:14;100147.72;;;15.97;100.00
4745;BME280;2386;42.138;24.746;2023-05-09T11:23:10;100142.94;;;16.09;100.00
4745;BME280;2386;42.138;24.746;2023-05-09T11:25:37;100145.31;;;16.22;100.00
4745;BME280;2386;42.138;24.746;2023-05-09T11:28:03;100144.13;;;16.40;100.00
4745;BME280;2386;42.138;24.746;2023-05-09T11:30:40;100137.69;;;16.51;100.00
4745;BME280;2386;42.138;24.746;2023-05-09T11:33:20;100140.09;;;16.69;100.00
4745;BME280;2386;42.138;24.746;2023-05-09T11:35:46;100137.31;;;16.64;100.00
4745;BME280;2386;42.138;24.746;2023-05-09T11:38:19;100136.22;;;16.65;100.00
4745;BME280;2386;42.138;24.746;2023-05-09T11:40:45;100155.00;;;16.79;100.00
4745;BME280;2386;42.138;24.746;2023-05-09T11:43:11;100143.81;;;16.85;100.00
4745;BME280;2386;42.138;24.746;2023-05-09T11:45:37;100136.59;;;16.74;100.00
4745;BME280;2386;42.138;24.746;2023-05-09T11:48:07;100146.31;;;16.87;100.00
4745;BME280;2386;42.138;24.746;2023-05-09T11:50:33;100150.34;;;16.79;100.00
4745;BME280;2386;42.138;24.746;2023-05-09T11:52:58;100150.81;;;16.71;100.00
4745;BME280;2386;42.138;24.746;2023-05-09T11:55:24;100147.09;;;16.60;100.00
4745;BME280;2386;42.138;24.746;2023-05-09T11:57:53;100135.31;;;16.60;100.00
4745;BME280;2386;42.138;24.746;2023-05-09T12:00:20;100143.78;;;16.80;100.00
4745;BME280;2386;42.138;24.746;2023-05-09T12:02:46;100139.47;;;16.89;100.00
4745;BME280;2386;42.138;24.746;2023-05-09T12:05:14;100142.94;;;16.80;100.00
4745;BME280;2386;42.138;24.746;2023-05-09T12:07:40;100130.03;;;16.75;100.00
4745;BME280;2386;42.138;24.746;2023-05-09T12:10:09;100140.53;;;16.83;100.00
4745;BME280;2386;42.138;24.746;2023-05-09T12:16:01;100146.50;;;16.80;100.00
4745;BME280;2386;42.138;24.746;2023-05-09T12:18:26;100133.13;;;16.62;100.00
4745;BME280;2386;42.138;24.746;2023-05-09T12:20:52;100123.66;;;16.48;100.00
4745;BME280;2386;42.138;24.746;2023-05-09T12:26:39;100127.66;;;16.62;100.00
4745;BME280;2386;42.138;24.746;2023-05-09T12:29:05;100122.91;;;16.52;100.00
4745;BME280;2386;42.138;24.746;2023-05-09T12:31:31;100109.66;;;16.44;100.00
4745;BME280;2386;42.138;24.746;2023-05-09T12:33:56;100117.03;;;16.65;100.00
4745;BME280;2386;42.138;24.746;2023-05-09T12:36:21;100115.00;;;16.56;100.00
4745;BME280;2386;42.138;24.746;2023-05-09T12:38:54;100117.78;;;16.61;99.50
4745;BME280;2386;42.138;24.746;2023-05-09T12:41:20;100100.50;;;16.82;99.78
4745;BME280;2386;42.138;24.746;2023-05-09T12:43:48;100111.13;;;17.11;99.13
4745;BME280;2386;42.138;24.746;2023-05-09T12:46:18;100099.84;;;17.02;95.26
4745;BME280;2386;42.138;24.746;2023-05-09T12:48:47;100115.22;;;17.03;96.42
4745;BME280;2386;42.138;24.746;2023-05-09T12:51:20;100089.06;;;16.90;97.01
4745;BME280;2386;42.138;24.746;2023-05-09T12:53:46;100096.59;;;17.10;98.37
4745;BME280;2386;42.138;24.746;2023-05-09T12:56:33;100105.75;;;17.21;99.23
4745;BME280;2386;42.138;24.746;2023-05-09T12:59:24;100091.94;;;17.11;97.56
4745;BME280;2386;42.138;24.746;2023-05-09T13:01:55;100090.41;;;17.25;96.60
4745;BME280;2386;42.138;24.746;2023-05-09T13:04:28;100107.81;;;17.40;95.02
4745;BME280;2386;42.138;24.746;2023-05-09T13:06:55;100092.75;;;17.43;93.44
4745;BME280;2386;42.138;24.746;2023-05-09T13:09:23;100090.00;;;17.43;91.00
4745;BME280;2386;42.138;24.746;2023-05-09T13:11:49;100089.97;;;17.38;91.72
4745;BME280;2386;42.138;24.746;2023-05-09T13:14:15;100082.19;;;17.25;91.62
4745;BME280;2386;42.138;24.746;2023-05-09T13:16:42;100089.94;;;17.33;92.80
4745;BME280;2386;42.138;24.746;2023-05-09T13:19:08;100085.16;;;17.18;95.68
4745;BME280;2386;42.138;24.746;2023-05-09T13:21:33;100098.56;;;17.15;95.50
4745;BME280;2386;42.138;24.746;2023-05-09T13:23:59;100086.72;;;17.09;94.17
4745;BME280;2386;42.138;24.746;2023-05-09T13:26:25;100077.31;;;16.95;94.04
4745;BME280;2386;42.138;24.746;2023-05-09T13:28:52;100068.84;;;16.96;94.99
4745;BME280;2386;42.138;24.746;2023-05-09T13:31:17;100085.91;;;17.03;96.23
4745;BME280;2386;42.138;24.746;2023-05-09T13:33:43;100085.59;;;17.00;95.91
4745;BME280;2386;42.138;24.746;2023-05-09T13:36:09;100082.50;;;16.91;96.15
4745;BME280;2386;42.138;24.746;2023-05-09T13:38:34;100087.00;;;16.75;100.00
4745;BME280;2386;42.138;24.746;2023-05-09T13:41:08;100081.19;;;16.67;100.00
4745;BME280;2386;42.138;24.746;2023-05-09T13:43:34;100080.00;;;16.63;99.97
4745;BME280;2386;42.138;24.746;2023-05-09T13:46:00;100083.22;;;16.55;100.00
4745;BME280;2386;42.138;24.746;2023-05-09T13:48:25;100075.09;;;16.38;100.00
4745;BME280;2386;42.138;24.746;2023-05-09T13:50:51;100084.94;;;16.34;100.00
4745;BME280;2386;42.138;24.746;2023-05-09T13:53:17;100084.88;;;16.29;100.00
4745;BME280;2386;42.138;24.746;2023-05-09T13:55:43;100087.06;;;16.27;100.00
4745;BME280;2386;42.138;24.746;2023-05-09T13:58:09;100087.25;;;16.20;99.42
4745;BME280;2386;42.138;24.746;2023-05-09T14:00:34;100072.88;;;16.08;100.00
4745;BME280;2386;42.138;24.746;2023-05-09T14:03:01;100078.09;;;15.88;100.00
4745;BME280;2386;42.138;24.746;2023-05-09T14:05:27;100082.47;;;15.89;100.00
4745;BME280;2386;42.138;24.746;2023-05-09T14:07:53;100075.94;;;15.90;100.00
4745;BME280;2386;42.138;24.746;2023-05-09T14:10:19;100080.19;;;16.02;100.00
4745;BME280;2386;42.138;24.746;2023-05-09T14:12:44;100067.28;;;15.98;100.00
4745;BME280;2386;42.138;24.746;2023-05-09T14:15:11;100076.63;;;16.02;100.00
4745;BME280;2386;42.138;24.746;2023-05-09T14:17:37;100085.84;;;15.96;100.00
4745;BME280;2386;42.138;24.746;2023-05-09T14:20:17;100090.00;;;15.98;100.00
4745;BME280;2386;42.138;24.746;2023-05-09T14:30:26;100085.59;;;15.97;100.00
4745;BME280;2386;42.138;24.746;2023-05-09T14:32:51;100092.16;;;15.96;100.00
4745;BME280;2386;42.138;24.746;2023-05-09T14:35:17;100088.34;;;15.97;100.00
4745;BME280;2386;42.138;24.746;2023-05-09T14:37:42;100080.97;;;15.98;100.00
4745;BME280;2386;42.138;24.746;2023-05-09T14:40:08;100092.22;;;16.01;100.00
4745;BME280;2386;42.138;24.746;2023-05-09T14:42:33;100090.88;;;16.04;100.00
4745;BME280;2386;42.138;24.746;2023-05-09T14:45:00;100080.13;;;15.97;100.00
4745;BME280;2386;42.138;24.746;2023-05-09T14:47:26;100083.19;;;16.01;100.00
4745;BME280;2386;42.138;24.746;2023-05-09T14:49:51;100093.88;;;16.02;100.00
4745;BME280;2386;42.138;24.746;2023-05-09T14:52:17;100098.06;;;16.10;100.00
4745;BME280;2386;42.138;24.746;2023-05-09T14:54:42;100102.16;;;16.07;100.00
4745;BME280;2386;42.138;24.746;2023-05-09T14:57:07;100092.59;;;16.10;100.00
4745;BME280;2386;42.138;24.746;2023-05-09T14:59:33;100087.63;;;16.07;100.00
4745;BME280;2386;42.138;24.746;2023-05-09T15:01:58;100080.81;;;16.09;100.00